Latest Weather Observations for Gabo Island

IDV60801

Issued at 7:22 pm EDT Monday 25 October 2021 (issued every 10 minutes, with the page automatically refreshed every 10 minutes)

About weather observations | Map of weather stations | Latest weather observations for VIC | Other Formats
Station Details ID: 084016 Name: GABO ISLAND LIGHTHOUSE Lat: -37.57 Lon: 149.92 Height: 15.0 m
Data from the previous 72 hours. | See also: Recent months at Gabo Island
Date/Time
EDT
Temp
°C
App
Temp
°C
Dew
Point
°C
Rel
Hum
%
Delta-T
°C
Wind Press
QNH
hPa
Press
MSL
hPa
Rain since
9am
mm
Dir  Spd
km/h
Gust
km/h
Spd
kts
Gust
kts
25/07:00pm 12.8 3.2 9.4 80 1.7 WSW 50 69 27 37 1017.1 1017.1 0.0
25/06:56pm 12.7 3.0 9.2 79 1.8 WSW 50 69 27 37 1017.0 1017.0 0.0
25/06:30pm 12.7 2.4 9.5 81 1.6 WSW 54 67 29 36 1016.9 1016.9 0.0
25/06:00pm 12.9 2.5 9.2 78 1.9 SW 54 69 29 37 1016.8 1016.8 0.0
25/05:46pm 13.0 4.0 8.9 76 2.1 WSW 46 65 25 35 1016.8 1016.8 0.0
25/05:30pm 12.9 3.8 8.6 75 2.1 WSW 46 57 25 31 1016.7 1016.7 0.0
25/05:00pm 12.4 2.9 8.5 77 1.9 WSW 48 59 26 32 1016.5 1016.5 0.0
25/04:30pm 12.5 2.9 9.3 81 1.6 WSW 50 67 27 36 1016.5 1016.5 0.0
25/04:00pm 12.8 2.7 8.9 77 2.0 WSW 52 63 28 34 1016.4 1016.4 0.0
25/03:30pm 13.6 3.2 9.1 74 2.3 WSW 54 69 29 37 1016.3 1016.3 0.0
25/03:00pm 13.8 3.2 8.6 71 2.6 SW 54 67 29 36 1016.3 1016.3 0.0
25/02:30pm 13.5 3.4 9.0 74 2.3 SW 52 69 28 37 1016.3 1016.3 0.0
25/02:00pm 14.1 3.2 8.7 70 2.7 SW 56 67 30 36 1016.3 1016.3 0.0
25/01:30pm 13.7 2.8 8.7 72 2.5 SW 56 67 30 36 1016.4 1016.4 0.0
25/01:00pm 13.9 4.4 8.3 69 2.8 WSW 48 61 26 33 1016.3 1016.3 0.0
25/12:30pm 14.1 4.3 8.7 70 2.7 SW 50 63 27 34 1016.2 1016.2 0.0
25/12:00pm 14.4 3.4 8.4 67 3.0 SW 56 65 30 35 1016.3 1016.3 0.0
25/11:30am 14.5 3.9 8.5 67 3.0 SW 54 65 29 35 1016.3 1016.3 0.0
25/11:00am 14.2 3.5 7.9 66 3.1 SW 54 65 29 35 1016.4 1016.4 0.0
25/10:36am 13.7 5.6 8.5 71 2.6 WSW 41 59 22 32 1016.4 1016.4 0.0
25/10:30am 13.2 5.4 8.3 72 2.4 WSW 39 52 21 28 1016.6 1016.6 0.0
25/10:00am 12.5 4.2 7.6 72 2.4 W 41 50 22 27 1016.7 1016.7 0.0
25/09:30am 11.9 3.2 7.8 76 2.0 WSW 43 56 23 30 1016.5 1016.5 0.0
25/09:00am 11.6 2.9 7.7 77 1.9 W 43 54 23 29 1016.5 1016.5 0.0
25/08:30am 11.7 2.9 7.2 74 2.2 WSW 43 54 23 29 1016.1 1016.1 0.0
25/08:00am 11.7 2.7 6.6 71 2.4 W 43 52 23 28 1015.9 1015.9 0.0
25/07:30am 11.1 1.9 6.5 73 2.2 W 44 52 24 28 1015.9 1015.9 0.0
25/07:00am 10.6 1.9 6.2 74 2.0 W 41 52 22 28 1015.8 1015.8 0.0
25/06:30am 10.0 1.1 5.2 72 2.2 W 41 50 22 27 1015.6 1015.6 0.0
25/06:00am 10.4 1.2 5.6 72 2.2 W 43 54 23 29 1015.3 1015.3 0.0
25/05:30am 10.2 1.6 4.8 69 2.4 W 39 48 21 26 1015.4 1015.4 0.0
25/05:00am 10.3 1.7 4.7 68 2.5 W 39 48 21 26 1015.6 1015.6 0.0
25/04:30am 10.6 1.6 4.7 67 2.7 W 41 52 22 28 1015.6 1015.6 0.0
25/04:00am 10.3 0.9 4.5 67 2.6 W 43 54 23 29 1015.6 1015.6 0.0
25/03:30am 10.7 1.4 5.0 68 2.6 W 43 57 23 31 1015.9 1015.9 0.0
25/03:00am 10.4 1.5 5.0 69 2.4 W 41 52 22 28 1015.8 1015.8 0.0
25/02:30am 10.6 1.4 5.4 70 2.4 W 43 54 23 29 1016.0 1016.0 0.0
25/02:00am 10.9 2.3 6.6 75 2.0 W 41 50 22 27 1016.0 1016.0 0.0
25/01:30am 11.4 2.3 5.9 69 2.6 WSW 43 54 23 29 1016.3 1016.3 0.0
25/01:01am 11.7 2.1 6.2 69 2.6 WSW 46 65 25 35 1016.5 1016.5 0.0
25/01:00am 11.7 2.1 6.4 70 2.5 WSW 46 57 25 31 1016.5 1016.5 0.0
25/12:30am 12.4 1.5 7.1 70 2.6 WSW 54 65 29 35 1016.7 1016.7 0.0
25/12:00am 12.5 2.6 6.8 68 2.7 WSW 48 57 26 31 1016.9 1016.9 0.0
 
Date/Time
EDT
Temp
°C
App
Temp
°C
Dew
Point
°C
Rel
Hum
%
Delta-T
°C
Wind Press
QNH
hPa
Press
MSL
hPa
Rain since
9am
mm
Dir  Spd
km/h
Gust
km/h
Spd
kts
Gust
kts
24/11:30pm 12.9 2.9 7.8 71 2.5 WSW 50 63 27 34 1017.0 1017.0 0.0
24/11:00pm 13.0 2.4 8.5 74 2.2 WSW 54 63 29 34 1017.1 1017.1 0.0
24/10:30pm 13.1 3.3 8.8 75 2.2 WSW 50 65 27 35 1017.2 1017.2 0.0
24/10:00pm 13.1 3.7 8.8 75 2.2 WSW 48 61 26 33 1017.2 1017.2 0.0
24/09:33pm 13.3 3.6 9.2 76 2.1 WSW 50 69 27 37 1017.2 1017.2 0.0
24/09:30pm 13.2 3.1 8.9 75 2.2 WSW 52 69 28 37 1017.1 1017.1 0.0
24/09:00pm 13.4 3.4 9.5 77 2.0 WSW 52 65 28 35 1017.1 1017.1 0.0
24/08:30pm 13.5 3.8 9.2 75 2.2 WSW 50 63 27 34 1017.0 1017.0 0.0
24/08:00pm 13.5 4.7 9.6 77 2.0 WSW 46 59 25 32 1016.9 1016.9 0.0
24/07:30pm 13.8 4.7 10.0 78 2.0 WSW 48 61 26 33 1016.8 1016.8 0.0
24/07:00pm 13.6 5.2 9.6 77 2.0 WSW 44 57 24 31 1016.8 1016.8 0.0
24/06:30pm 14.0 4.6 10.0 77 2.1 SW 50 63 27 34 1016.5 1016.5 0.0
24/06:00pm 14.3 4.1 9.9 75 2.3 SW 54 69 29 37 1016.3 1016.3 0.0
24/05:30pm 14.6 5.2 10.2 75 2.3 SW 50 59 27 32 1016.0 1016.0 0.0
24/05:00pm 14.3 4.0 9.7 74 2.4 SW 54 65 29 35 1015.9 1015.9 0.0
24/04:30pm 14.2 4.3 9.6 74 2.4 WSW 52 65 28 35 1015.9 1015.9 0.0
24/04:00pm 14.2 4.8 10.0 76 2.2 WSW 50 69 27 37 1015.9 1015.9 0.0
24/03:30pm 14.8 4.3 9.0 68 3.0 WSW 54 72 29 39 1015.6 1015.6 0.0
24/03:28pm 14.8 4.3 8.7 67 3.1 WSW 54 72 29 39 1015.6 1015.6 0.0
24/03:00pm 14.4 2.6 9.0 70 2.7 SW 61 72 33 39 1015.7 1015.7 0.0
24/02:30pm 14.5 3.2 9.5 72 2.6 SW 59 70 32 38 1015.7 1015.7 0.0
24/02:00pm 14.7 3.9 9.3 70 2.8 SW 56 74 30 40 1015.6 1015.6 0.0
24/01:51pm 14.9 4.2 8.2 64 3.4 WSW 54 74 29 40 1015.5 1015.5 0.0
24/01:30pm 15.7 6.2 9.8 68 3.1 WSW 50 65 27 35 1015.5 1015.5 0.0
24/01:00pm 14.8 5.2 9.4 70 2.8 WSW 50 65 27 35 1015.6 1015.6 0.0
24/12:41pm 14.8 4.0 9.2 69 2.9 WSW 56 74 30 40 1015.6 1015.6 0.0
24/12:30pm 14.7 3.6 8.9 68 2.9 WSW 57 74 31 40 1015.5 1015.5 0.0
24/12:00pm 14.4 3.2 8.4 67 3.0 WSW 57 78 31 42 1015.3 1015.3 0.0
24/11:38am 15.0 5.3 9.1 68 3.0 WSW 50 69 27 37 1015.3 1015.3 0.0
24/11:30am 14.7 4.5 8.4 66 3.2 WSW 52 65 28 35 1015.3 1015.3 0.0
24/11:00am 15.3 5.3 9.4 68 3.0 WSW 52 67 28 36 1015.6 1015.6 0.0
24/10:40am 14.7 5.6 8.6 67 3.1 WSW 46 65 25 35 1015.8 1015.8 0.0
24/10:30am 14.5 5.0 8.2 66 3.2 WSW 48 63 26 34 1015.7 1015.7 0.0
24/10:04am 14.6 5.7 9.2 70 2.8 WSW 46 65 25 35 1015.7 1015.7 0.0
24/10:00am 14.5 4.6 8.2 66 3.1 WSW 50 65 27 35 1015.7 1015.7 0.0
24/09:30am 14.0 3.7 8.2 68 2.9 WSW 52 67 28 36 1015.6 1015.6 0.0
24/09:00am 13.8 3.6 8.6 71 2.6 WSW 52 65 28 35 1015.3 1015.3 4.0
24/08:30am 13.7 3.5 8.7 72 2.5 WSW 52 67 28 36 1015.0 1015.0 4.0
24/08:07am 13.1 3.1 7.8 70 2.6 WSW 50 69 27 37 1014.7 1014.7 4.0
24/08:00am 13.2 4.1 8.5 73 2.3 WSW 46 59 25 32 1014.8 1014.8 4.0
24/07:30am 12.5 3.2 7.6 72 2.4 W 46 61 25 33 1014.2 1014.2 4.0
24/07:22am 12.4 3.1 7.5 72 2.4 WSW 46 65 25 35 1014.1 1014.1 4.0
24/07:00am 12.1 2.0 7.4 73 2.3 WSW 50 59 27 32 1013.8 1013.8 4.0
24/06:30am 11.9 0.1 7.4 74 2.2 W 59 72 32 39 1013.0 1013.0 4.0
24/06:00am 11.8 0.3 7.3 74 2.2 W 57 80 31 43 1012.5 1012.5 4.0
24/05:58am 11.8 0.9 7.3 74 2.2 WSW 54 74 29 40 1012.7 1012.7 4.0
24/05:33am 11.7 2.6 7.0 73 2.2 W 44 63 24 34 1013.6 1013.6 4.0
24/05:30am 11.8 2.8 7.1 73 2.3 W 44 56 24 30 1013.4 1013.4 4.0
24/05:00am 11.7 2.6 6.8 72 2.3 W 44 57 24 31 1013.3 1013.3 4.0
24/04:30am 11.7 3.0 7.6 76 2.0 W 43 52 23 28 1013.6 1013.6 4.0
24/04:00am 11.7 2.7 7.4 75 2.1 WSW 44 56 24 30 1013.8 1013.8 4.0
24/03:30am 11.9 3.1 7.4 74 2.2 W 43 52 23 28 1013.7 1013.7 4.0
24/03:00am 12.1 3.2 7.6 74 2.2 W 44 57 24 31 1013.8 1013.8 4.0
24/02:30am 12.0 3.2 7.9 76 2.0 W 44 54 24 29 1013.8 1013.8 4.0
24/02:00am 12.2 3.5 8.5 78 1.8 WSW 44 52 24 28 1014.0 1014.0 4.0
24/01:30am 12.3 2.4 8.2 76 2.0 WSW 50 65 27 35 1014.0 1014.0 4.0
24/01:07am 12.4 2.5 8.3 76 2.0 WSW 50 69 27 37 1014.2 1014.2 4.0
24/01:00am 12.7 3.3 8.8 77 2.0 WSW 48 59 26 32 1014.1 1014.1 4.0
24/12:30am 12.8 2.3 8.9 77 2.0 WSW 54 69 29 37 1014.1 1014.1 4.0
24/12:00am 13.0 3.4 9.4 79 1.8 WSW 50 61 27 33 1014.5 1014.5 4.0
 
Date/Time
EDT
Temp
°C
App
Temp
°C
Dew
Point
°C
Rel
Hum
%
Delta-T
°C
Wind Press
QNH
hPa
Press
MSL
hPa
Rain since
9am
mm
Dir  Spd
km/h
Gust
km/h
Spd
kts
Gust
kts
23/11:30pm 13.0 4.8 9.6 80 1.7 WSW 43 52 23 28 1015.0 1015.0 4.0
23/11:00pm 13.1 5.8 10.3 83 1.4 WSW 39 48 21 26 1015.0 1015.0 4.0
23/10:30pm 13.0 6.0 11.2 89 0.9 WSW 39 50 21 27 1014.7 1014.7 4.0
23/10:00pm 13.0 6.0 11.2 89 0.9 WSW 39 52 21 28 1015.0 1015.0 3.8
23/09:30pm 13.3 6.9 11.9 91 0.7 WSW 37 48 20 26 1015.0 1015.0 3.2
23/09:00pm 13.5 6.8 12.2 92 0.7 WSW 39 46 21 25 1014.6 1014.6 3.0
23/08:30pm 13.3 7.0 12.2 93 0.6 WSW 37 44 20 24 1014.0 1014.0 3.0
23/08:00pm 13.5 7.2 12.2 92 0.7 WSW 37 46 20 25 1014.1 1014.1 2.8
23/07:30pm 14.0 6.2 12.9 93 0.6 WSW 46 56 25 30 1013.6 1013.6 2.4
23/07:00pm 14.6 10.0 13.5 93 0.6 WSW 30 41 16 22 1012.9 1012.9 2.0
23/06:30pm 14.9 8.7 13.9 94 0.6 SW 39 48 21 26 1011.6 1011.6 1.6
23/06:00pm 15.1 9.1 14.3 95 0.5 SW 39 48 21 26 1011.4 1011.4 1.6
23/05:30pm 15.3 10.2 14.7 96 0.3 SW 35 41 19 22 1011.5 1011.5 1.6
23/05:00pm 15.5 10.7 14.7 95 0.5 SW 33 39 18 21 1011.3 1011.3 1.0
23/04:30pm 15.8 12.4 14.8 94 0.6 SW 26 30 14 16 1011.4 1011.4 1.0
23/04:00pm 16.3 15.0 14.8 91 0.9 SW 15 20 8 11 1011.2 1011.2 0.6
23/03:30pm 17.2 16.9 14.5 84 1.6 SW 9 13 5 7 1010.9 1010.9 0.0
23/03:00pm 18.1 18.1 15.2 83 1.7 SW 9 13 5 7 1011.2 1011.2 0.0
23/02:30pm 17.5 18.2 14.6 83 1.7 SW 4 9 2 5 1011.3 1011.3 0.0
23/02:00pm 17.8 17.6 14.7 82 1.8 W 9 11 5 6 1011.7 1011.7 0.0
23/01:30pm 18.0 19.6 14.9 82 1.8 CALM 0 6 0 3 1011.7 1011.7 0.0
23/01:00pm 17.7 17.7 15.1 85 1.5 SSW 9 15 5 8 1011.8 1011.8 0.0
23/12:30pm 17.5 16.3 15.0 85 1.5 S 15 19 8 10 1012.4 1012.4 0.0
23/12:00pm 18.9 19.4 15.6 81 1.9 ENE 7 9 4 5 1012.5 1012.5 0.0
23/11:30am 18.3 18.9 15.9 86 1.4 WSW 7 9 4 5 1012.8 1012.8 0.0
23/11:00am 17.1 17.0 14.9 87 1.3 SSW 9 11 5 6 1013.2 1013.2 0.0
23/10:30am 17.2 16.3 14.8 86 1.4 SSE 13 17 7 9 1012.6 1012.6 0.0
23/10:00am 17.2 17.0 14.8 86 1.4 SSE 9 13 5 7 1012.6 1012.6 0.0
23/09:30am 17.6 17.5 15.0 85 1.5 S 9 11 5 6 1012.6 1012.6 0.0
23/09:00am 17.3 16.9 15.1 87 1.3 S 11 15 6 8 1012.4 1012.4 0.0
23/08:30am 18.7 19.4 15.6 82 1.8 SW 6 7 3 4 1012.1 1012.1 0.0
23/08:00am 17.5 16.1 15.5 88 1.2 NNE 17 19 9 10 1011.7 1011.7 0.0
23/07:30am 17.5 14.4 15.5 88 1.2 NNE 26 30 14 16 1011.2 1011.2 0.0
23/07:00am 17.0 11.7 15.3 90 1.0 NNE 37 44 20 24 1010.7 1010.7 0.0
23/06:30am 16.4 11.7 14.9 91 0.9 NNE 33 41 18 22 1010.8 1010.8 0.0
23/06:00am 16.1 11.3 14.6 91 0.9 NNE 33 39 18 21 1010.8 1010.8 0.0
23/05:30am 16.5 12.0 14.9 90 0.9 NNE 32 39 17 21 1010.5 1010.5 0.0
23/05:00am 16.5 11.4 14.9 90 0.9 NNE 35 41 19 22 1010.8 1010.8 0.0
23/04:30am 16.6 11.2 15.0 90 0.9 NNE 37 46 20 25 1010.8 1010.8 0.0
23/04:00am 16.5 12.0 14.9 90 0.9 NNE 32 39 17 21 1011.0 1011.0 0.0
23/03:30am 16.7 11.7 15.1 90 0.9 NNE 35 44 19 24 1011.1 1011.1 0.0
23/03:00am 16.9 12.4 15.4 91 0.9 NNE 33 46 18 25 1011.5 1011.5 0.0
23/02:30am 16.7 13.6 15.6 93 0.6 NNE 26 35 14 19 1012.1 1012.1 0.0
23/02:00am 16.2 10.8 15.1 93 0.6 NNE 37 43 20 23 1011.8 1011.8 0.0
23/01:30am 16.4 10.3 15.1 92 0.8 NNE 41 46 22 25 1012.1 1012.1 0.0
23/01:00am 16.3 11.9 15.2 93 0.6 NNE 32 39 17 21 1013.3 1013.3 0.0
23/12:30am 16.1 11.0 14.8 92 0.7 NE 35 41 19 22 1013.5 1013.5 0.0
23/12:00am 16.1 12.4 15.1 94 0.6 NE 28 32 15 17 1014.2 1014.2 0.0
 
Date/Time
EDT
Temp
°C
App
Temp
°C
Dew
Point
°C
Rel
Hum
%
Delta-T
°C
Wind Press
QNH
hPa
Press
MSL
hPa
Rain since
9am
mm
Dir  Spd
km/h
Gust
km/h
Spd
kts
Gust
kts
22/11:30pm 15.7 13.0 14.7 94 0.6 NE 22 26 12 14 1014.6 1014.6 0.0
22/11:00pm 15.6 13.2 14.5 93 0.6 NE 20 24 11 13 1014.9 1014.9 0.0
22/10:30pm 15.9 13.7 14.8 93 0.6 NE 20 24 11 13 1015.0 1015.0 0.0
22/10:00pm 16.0 13.3 14.7 92 0.7 NE 22 26 12 14 1015.0 1015.0 0.0
22/09:30pm 16.1 13.1 14.8 92 0.7 NE 24 26 13 14 1014.9 1014.9 0.0
22/09:00pm 16.2 12.8 14.7 91 0.9 NE 26 28 14 15 1015.0 1015.0 0.0
22/08:30pm 16.5 13.6 15.2 92 0.8 NE 24 28 13 15 1014.9 1014.9 0.0
22/08:00pm 16.3 13.0 15.0 92 0.8 NE 26 30 14 16 1014.6 1014.6 0.0
22/07:30pm 16.3 12.6 15.0 92 0.8 NE 28 32 15 17 1014.4 1014.4 0.0

Other formats

Comma delimited format used in spreadsheet applications
http://www.bom.gov.au/fwo/IDV60801/IDV60801.94933.axf

JavaScript Object Notation format (JSON) in row-major order
http://www.bom.gov.au/fwo/IDV60801/IDV60801.94933.json

Data quality

Most of these data are generated automatically and are frequently updated. Quality checks on data are not normally performed. It is possible for incorrect values to appear. Refer to information at About Latest Weather Observations and please check the disclaimer before using these data.